createdAt,value
2023-03-12T00:01:30.309Z,34.00
2023-03-12T00:04:03.111Z,34.10
2023-03-12T00:06:32.696Z,34.30
2023-03-12T00:09:03.910Z,34.30
2023-03-12T00:11:33.038Z,34.30
2023-03-12T00:14:02.333Z,34.40
2023-03-12T00:16:31.219Z,34.40
2023-03-12T00:19:02.294Z,34.50
2023-03-12T00:21:31.049Z,34.70
2023-03-12T00:24:00.326Z,34.70
2023-03-12T00:26:29.351Z,34.70
2023-03-12T00:28:58.549Z,34.80
2023-03-12T00:31:31.911Z,34.90
2023-03-12T00:34:03.864Z,35.00
2023-03-12T00:36:34.334Z,35.00
2023-03-12T00:39:04.083Z,35.00
2023-03-12T00:41:32.935Z,35.00
2023-03-12T00:44:02.195Z,35.10
2023-03-12T00:46:31.240Z,35.10
2023-03-12T00:49:01.691Z,35.20
2023-03-12T00:51:30.532Z,35.20
2023-03-12T00:53:59.702Z,35.10
2023-03-12T00:56:28.514Z,35.20
2023-03-12T00:58:58.190Z,35.10
2023-03-12T01:01:27.691Z,35.10
2023-03-12T01:03:58.370Z,35.00
2023-03-12T01:06:28.617Z,35.10
2023-03-12T01:08:57.893Z,35.00
2023-03-12T01:11:26.907Z,34.90
2023-03-12T01:13:55.994Z,35.00
2023-03-12T01:16:28.258Z,34.90
2023-03-12T01:18:58.395Z,34.90
2023-03-12T01:21:31.055Z,35.00
2023-03-12T01:24:00.266Z,34.90
2023-03-12T01:26:29.463Z,34.80
2023-03-12T01:28:58.533Z,34.70
2023-03-12T01:31:27.561Z,34.90
2023-03-12T01:33:56.750Z,34.90
2023-03-12T01:36:29.853Z,34.90
2023-03-12T01:39:00.689Z,35.00
2023-03-12T01:41:33.173Z,34.90
2023-03-12T01:44:04.658Z,34.80
2023-03-12T01:46:36.503Z,34.70
2023-03-12T01:49:15.480Z,34.70
2023-03-12T01:51:51.160Z,34.70
2023-03-12T01:54:26.933Z,34.80
2023-03-12T01:56:58.167Z,34.80
2023-03-12T01:59:34.051Z,34.70
2023-03-12T02:02:04.902Z,34.80
2023-03-12T02:04:35.813Z,34.80
2023-03-12T02:07:10.514Z,34.70
2023-03-12T02:09:44.651Z,34.80
2023-03-12T02:12:14.487Z,34.80
2023-03-12T02:14:44.446Z,34.70
2023-03-12T02:17:13.734Z,34.60
2023-03-12T02:19:56.368Z,34.70
2023-03-12T02:22:27.081Z,34.70
2023-03-12T02:25:05.463Z,34.60
2023-03-12T02:27:38.992Z,34.70
2023-03-12T02:30:15.189Z,34.70
2023-03-12T02:32:47.765Z,34.60
2023-03-12T02:35:18.632Z,34.80
2023-03-12T02:37:53.800Z,34.70
2023-03-12T02:40:30.687Z,34.70
2023-03-12T02:43:03.399Z,34.80
2023-03-12T02:45:34.163Z,34.60
2023-03-12T02:48:03.865Z,34.60
2023-03-12T02:50:32.945Z,34.50
2023-03-12T02:53:02.104Z,34.50
2023-03-12T02:55:31.241Z,34.60
2023-03-12T02:58:01.568Z,34.50
2023-03-12T03:00:32.878Z,34.50
2023-03-12T03:03:02.552Z,34.50
2023-03-12T03:05:31.830Z,34.60
2023-03-12T03:08:00.844Z,34.80
2023-03-12T03:10:30.552Z,34.70
2023-03-12T03:13:01.434Z,34.80
2023-03-12T03:15:30.655Z,34.50
2023-03-12T03:17:59.767Z,34.60
2023-03-12T03:20:28.826Z,34.80
2023-03-12T03:22:57.850Z,34.80
2023-03-12T03:25:27.207Z,34.80
2023-03-12T03:27:56.287Z,34.70
2023-03-12T03:30:26.736Z,35.00
2023-03-12T03:32:56.377Z,34.90
2023-03-12T03:35:26.032Z,35.10
2023-03-12T03:37:55.003Z,35.10
2023-03-12T03:40:24.106Z,35.10
2023-03-12T03:42:52.960Z,34.70
2023-03-12T03:45:22.214Z,34.90
2023-03-12T03:47:52.674Z,34.90
2023-03-12T03:50:22.060Z,34.90
2023-03-12T03:52:51.754Z,34.80
2023-03-12T03:55:20.954Z,34.80
2023-03-12T03:57:50.156Z,35.10
2023-03-12T04:00:20.381Z,34.90
2023-03-12T04:02:52.325Z,34.90
2023-03-12T04:05:21.758Z,34.90
2023-03-12T04:07:54.584Z,35.10
2023-03-12T04:10:26.597Z,34.90
2023-03-12T04:12:55.384Z,34.90
2023-03-12T04:15:25.218Z,35.00
2023-03-12T04:17:55.379Z,35.10
2023-03-12T04:20:25.153Z,35.00
2023-03-12T04:22:54.033Z,35.00
2023-03-12T04:25:23.163Z,34.90
2023-03-12T04:27:52.081Z,35.00
2023-03-12T04:30:21.734Z,34.90
2023-03-12T04:32:50.802Z,35.00
2023-03-12T04:35:21.828Z,35.00
2023-03-12T04:37:50.674Z,35.00
2023-03-12T04:40:20.549Z,35.00
2023-03-12T04:42:49.853Z,34.90
2023-03-12T04:45:19.163Z,34.90
2023-03-12T04:47:48.996Z,35.00
2023-03-12T04:50:20.275Z,34.80
2023-03-12T04:52:49.124Z,34.90
2023-03-12T04:55:18.680Z,35.00
2023-03-12T04:57:47.535Z,34.80
2023-03-12T05:00:17.685Z,34.80
2023-03-12T05:02:47.876Z,34.70
2023-03-12T05:05:17.115Z,34.80
2023-03-12T05:07:47.478Z,34.90
2023-03-12T05:10:16.858Z,35.60
2023-03-12T05:12:45.876Z,34.90
2023-03-12T05:15:17.788Z,35.00
2023-03-12T05:17:46.714Z,35.10
2023-03-12T05:20:17.704Z,35.10
2023-03-12T05:22:49.681Z,35.10
2023-03-12T05:25:19.306Z,35.10
2023-03-12T05:27:48.361Z,35.10
2023-03-12T05:30:18.136Z,35.10
2023-03-12T05:32:47.048Z,35.00
2023-03-12T05:35:17.004Z,35.10
2023-03-12T05:37:48.976Z,35.10
2023-03-12T05:40:18.357Z,34.90
2023-03-12T05:42:47.262Z,34.90
2023-03-12T05:45:16.494Z,35.00
2023-03-12T05:47:49.171Z,35.10
2023-03-12T05:50:19.413Z,35.00
2023-03-12T05:52:49.759Z,34.90
2023-03-12T05:55:19.561Z,34.90
2023-03-12T05:57:49.106Z,35.10
2023-03-12T06:00:19.801Z,35.00
2023-03-12T06:02:55.989Z,35.10
2023-03-12T06:05:25.353Z,34.90
2023-03-12T06:07:55.580Z,35.00
2023-03-12T06:10:24.777Z,35.00
2023-03-12T06:12:53.631Z,34.80
2023-03-12T06:15:23.099Z,35.00
2023-03-12T06:17:52.314Z,35.00
2023-03-12T06:20:21.751Z,35.10
2023-03-12T06:22:50.804Z,35.00
2023-03-12T06:25:21.348Z,34.90
2023-03-12T06:27:50.147Z,34.80
2023-03-12T06:30:19.602Z,34.90
2023-03-12T06:32:48.667Z,34.90
2023-03-12T06:35:17.959Z,34.80
2023-03-12T06:37:46.744Z,34.90
2023-03-12T06:40:15.853Z,34.70
2023-03-12T06:42:46.006Z,35.00
2023-03-12T06:45:15.057Z,35.10
2023-03-12T06:47:43.921Z,35.10
2023-03-12T06:50:13.241Z,35.20
2023-03-12T06:52:42.058Z,35.20
2023-03-12T06:55:11.521Z,35.20
2023-03-12T06:57:40.400Z,35.10
2023-03-12T07:00:13.204Z,35.30
2023-03-12T07:02:42.147Z,35.10
2023-03-12T07:05:11.647Z,35.50
2023-03-12T07:07:40.498Z,35.70
2023-03-12T07:10:12.220Z,35.50
2023-03-12T07:12:41.060Z,35.70
2023-03-12T07:15:12.752Z,35.70
2023-03-12T07:17:41.969Z,35.90
2023-03-12T07:20:13.298Z,35.80
2023-03-12T07:22:42.278Z,35.70
2023-03-12T07:25:12.108Z,35.50
2023-03-12T07:27:40.951Z,35.40
2023-03-12T07:30:13.462Z,35.30
2023-03-12T07:32:42.852Z,35.20
2023-03-12T07:35:12.210Z,34.80
2023-03-12T07:37:41.212Z,34.70
2023-03-12T07:40:12.433Z,34.50
2023-03-12T07:42:41.193Z,34.50
2023-03-12T07:45:12.617Z,34.30
2023-03-12T07:47:41.517Z,33.80
2023-03-12T07:50:12.643Z,33.80
2023-03-12T07:52:41.685Z,33.60
2023-03-12T07:55:12.327Z,33.00
2023-03-12T07:57:41.453Z,33.10
2023-03-12T08:00:14.008Z,33.50
2023-03-12T08:02:43.030Z,33.40
2023-03-12T08:05:12.463Z,33.20
2023-03-12T08:07:41.486Z,33.10
2023-03-12T08:10:12.824Z,32.80
2023-03-12T08:12:41.606Z,32.80
2023-03-12T08:15:13.548Z,32.70
2023-03-12T08:17:42.844Z,32.60
2023-03-12T08:20:13.759Z,32.60
2023-03-12T08:22:42.639Z,32.30
2023-03-12T08:25:12.827Z,32.30
2023-03-12T08:27:41.701Z,32.20
2023-03-12T08:30:14.055Z,32.60
2023-03-12T08:32:42.893Z,32.70
2023-03-12T08:35:12.362Z,32.70
2023-03-12T08:37:41.547Z,32.50
2023-03-12T08:40:13.422Z,32.90
2023-03-12T08:42:44.047Z,32.90
2023-03-12T08:45:15.881Z,32.60
2023-03-12T08:47:45.117Z,32.60
2023-03-12T08:50:16.894Z,32.40
2023-03-12T08:52:45.818Z,32.10
2023-03-12T08:55:15.512Z,32.20
2023-03-12T08:57:44.414Z,32.50
2023-03-12T09:00:18.060Z,31.80
2023-03-12T09:02:49.979Z,31.80
2023-03-12T09:05:19.411Z,30.90
2023-03-12T09:07:50.087Z,30.00
2023-03-12T09:10:19.448Z,29.90
2023-03-12T09:12:48.320Z,29.90
2023-03-12T09:15:19.310Z,29.90
2023-03-12T09:17:48.560Z,29.60
2023-03-12T09:20:17.682Z,29.90
2023-03-12T09:22:46.848Z,29.60
2023-03-12T09:25:17.134Z,29.70
2023-03-12T09:27:48.576Z,29.70
2023-03-12T09:30:22.070Z,29.10
2023-03-12T09:32:50.902Z,29.30
2023-03-12T09:35:20.137Z,29.10
2023-03-12T09:37:51.464Z,29.50
2023-03-12T09:40:25.060Z,29.80
2023-03-12T09:42:58.995Z,29.20
2023-03-12T09:45:37.167Z,30.30
2023-03-12T09:48:13.402Z,30.40
2023-03-12T09:50:46.850Z,30.70
2023-03-12T09:53:29.419Z,30.80
2023-03-12T09:56:03.698Z,30.20
2023-03-12T09:58:36.134Z,29.40
2023-03-12T10:01:31.700Z,29.60
2023-03-12T10:04:37.793Z,29.00
2023-03-12T10:07:21.882Z,28.80
2023-03-12T10:10:14.438Z,29.10
2023-03-12T10:13:03.638Z,28.20
2023-03-12T10:15:45.930Z,28.90
2023-03-12T10:18:36.876Z,29.50
2023-03-12T10:21:21.474Z,29.50
2023-03-12T10:24:16.678Z,29.30
2023-03-12T10:26:51.589Z,29.80
2023-03-12T10:29:25.399Z,29.90
2023-03-12T10:32:01.821Z,29.10
2023-03-12T10:34:41.318Z,29.60
2023-03-12T10:37:22.262Z,29.20
2023-03-12T10:39:52.738Z,29.30
2023-03-12T10:42:24.014Z,28.90
2023-03-12T10:44:57.546Z,28.40
2023-03-12T10:47:36.797Z,28.10
2023-03-12T10:50:18.238Z,27.90
2023-03-12T10:52:49.378Z,28.10
2023-03-12T10:55:26.361Z,28.40
2023-03-12T10:57:55.484Z,28.30
2023-03-12T11:00:27.920Z,28.70
2023-03-12T11:03:04.418Z,28.80
2023-03-12T11:05:37.960Z,29.30
2023-03-12T11:08:24.227Z,28.40
2023-03-12T11:10:53.384Z,27.90
2023-03-12T11:13:32.274Z,27.70
2023-03-12T11:16:04.267Z,27.50
2023-03-12T11:18:36.197Z,27.00
2023-03-12T11:21:20.065Z,27.30
2023-03-12T11:24:09.975Z,27.30
2023-03-12T11:26:50.674Z,27.30
2023-03-12T11:29:28.138Z,27.60
2023-03-12T11:32:18.551Z,27.20
2023-03-12T11:34:49.680Z,27.10
2023-03-12T11:37:32.585Z,27.10
2023-03-12T11:40:22.136Z,27.10
2023-03-12T11:43:29.258Z,27.10
2023-03-12T11:46:24.074Z,27.00
2023-03-12T11:49:20.310Z,26.90
2023-03-12T11:51:58.337Z,27.10
2023-03-12T11:55:15.826Z,27.20
2023-03-12T11:58:11.184Z,27.40
2023-03-12T12:00:52.067Z,27.10
2023-03-12T12:04:11.051Z,27.50
2023-03-12T12:06:59.149Z,27.30
2023-03-12T12:09:43.920Z,27.30
2023-03-12T12:12:53.009Z,27.00
2023-03-12T12:15:37.508Z,27.10
2023-03-12T12:18:32.259Z,27.10
2023-03-12T12:21:09.957Z,27.30
2023-03-12T12:23:54.762Z,27.00
2023-03-12T12:26:36.776Z,26.90
2023-03-12T12:29:31.755Z,26.80
2023-03-12T12:32:03.408Z,26.70
2023-03-12T12:35:05.922Z,26.80
2023-03-12T12:37:55.434Z,26.90
2023-03-12T12:40:32.306Z,27.10
2023-03-12T12:43:19.889Z,26.80
2023-03-12T12:45:53.137Z,27.00
2023-03-12T12:48:28.127Z,27.30
2023-03-12T12:51:00.154Z,26.80
2023-03-12T12:53:42.109Z,26.70
2023-03-12T12:56:22.612Z,27.40
2023-03-12T12:59:25.192Z,27.30
2023-03-12T13:01:57.138Z,27.20
2023-03-12T13:04:31.793Z,27.30
2023-03-12T13:07:27.607Z,26.90
2023-03-12T13:09:59.160Z,26.70
2023-03-12T13:12:34.820Z,27.10
2023-03-12T13:15:40.872Z,27.30
2023-03-12T13:18:22.967Z,26.70
2023-03-12T13:21:22.365Z,26.70
2023-03-12T13:24:07.515Z,27.00
2023-03-12T13:26:54.757Z,27.30
2023-03-12T13:29:39.789Z,27.50
2023-03-12T13:32:55.101Z,27.50
2023-03-12T13:35:37.309Z,27.30
2023-03-12T13:38:12.850Z,27.30
2023-03-12T13:41:03.141Z,27.30
2023-03-12T13:43:54.629Z,27.30
2023-03-12T13:46:37.857Z,27.30
2023-03-12T13:49:18.907Z,27.20
2023-03-12T13:52:02.287Z,27.20
2023-03-12T13:54:41.670Z,27.00
2023-03-12T13:57:27.410Z,27.00
2023-03-12T13:59:59.709Z,27.40
2023-03-12T14:02:34.593Z,27.70
2023-03-12T14:05:09.600Z,27.60
2023-03-12T14:08:17.301Z,27.50
2023-03-12T14:11:09.444Z,27.60
2023-03-12T14:14:09.184Z,27.50
2023-03-12T14:16:45.967Z,27.30
2023-03-12T14:19:17.425Z,26.50
2023-03-12T14:21:52.226Z,27.10
2023-03-12T14:24:28.832Z,27.00
2023-03-12T14:26:59.339Z,27.00
2023-03-12T14:29:36.747Z,27.10
2023-03-12T14:32:15.266Z,27.00
2023-03-12T14:34:50.497Z,27.00
2023-03-12T14:37:26.262Z,27.00
2023-03-12T14:40:01.632Z,26.90
2023-03-12T14:42:34.650Z,26.80
2023-03-12T14:45:12.955Z,27.30
2023-03-12T14:47:42.280Z,27.10
2023-03-12T14:50:19.860Z,27.50
2023-03-12T14:52:50.182Z,27.50
2023-03-12T14:55:24.364Z,27.50
2023-03-12T14:58:06.811Z,27.50
2023-03-12T15:00:36.043Z,27.60
2023-03-12T15:03:16.005Z,27.60
2023-03-12T15:05:48.288Z,27.50
2023-03-12T15:08:19.828Z,27.60
2023-03-12T15:10:52.409Z,27.60
2023-03-12T15:13:24.419Z,27.90
2023-03-12T15:15:56.574Z,27.90
2023-03-12T15:18:30.509Z,27.70
2023-03-12T15:21:03.639Z,27.80
2023-03-12T15:23:38.881Z,27.70
2023-03-12T15:26:27.339Z,27.40
2023-03-12T15:28:58.731Z,27.80
2023-03-12T15:31:28.688Z,27.70
2023-03-12T15:34:04.491Z,27.70
2023-03-12T15:36:35.936Z,27.80
2023-03-12T15:39:26.492Z,27.70
2023-03-12T15:42:01.218Z,27.80
2023-03-12T15:44:43.804Z,27.70
2023-03-12T15:47:16.609Z,27.90
2023-03-12T15:49:52.994Z,27.80
2023-03-12T15:52:32.236Z,27.90
2023-03-12T15:55:07.126Z,28.00
2023-03-12T15:57:46.444Z,28.10
2023-03-12T16:00:24.761Z,28.00
2023-03-12T16:02:58.048Z,28.00
2023-03-12T16:05:31.843Z,28.00
2023-03-12T16:08:11.850Z,28.20
2023-03-12T16:10:42.608Z,28.20
2023-03-12T16:13:16.960Z,28.30
2023-03-12T16:15:47.754Z,28.00
2023-03-12T16:18:19.886Z,27.80
2023-03-12T16:20:50.911Z,28.10
2023-03-12T16:23:21.171Z,27.80
2023-03-12T16:25:55.783Z,27.80
2023-03-12T16:28:26.018Z,27.80
2023-03-12T16:30:55.731Z,27.90
2023-03-12T16:33:26.088Z,28.20
2023-03-12T16:35:55.858Z,28.20
2023-03-12T16:38:25.160Z,28.20
2023-03-12T16:40:55.835Z,28.90
2023-03-12T16:43:29.197Z,28.60
2023-03-12T16:45:58.236Z,28.50
2023-03-12T16:48:27.491Z,28.60
2023-03-12T16:50:58.939Z,28.70
2023-03-12T16:53:28.688Z,28.80
2023-03-12T16:56:02.581Z,28.90
2023-03-12T16:58:32.217Z,29.00
2023-03-12T17:01:01.224Z,29.20
2023-03-12T17:03:36.472Z,29.40
2023-03-12T17:06:20.561Z,29.50
2023-03-12T17:08:51.170Z,29.70
2023-03-12T17:11:24.666Z,29.80
2023-03-12T17:13:58.624Z,29.60
2023-03-12T17:16:28.082Z,29.70
2023-03-12T17:18:57.993Z,29.70
2023-03-12T17:21:26.902Z,29.90
2023-03-12T17:23:55.980Z,29.80
2023-03-12T17:26:26.210Z,30.00
2023-03-12T17:28:55.279Z,30.30
2023-03-12T17:31:26.739Z,30.20
2023-03-12T17:33:55.916Z,30.20
2023-03-12T17:36:24.747Z,30.30
2023-03-12T17:38:53.792Z,30.30
2023-03-12T17:41:26.789Z,30.30
2023-03-12T17:44:01.604Z,30.70
2023-03-12T17:46:32.229Z,30.30
2023-03-12T17:49:01.736Z,30.70
2023-03-12T17:51:30.535Z,30.80
2023-03-12T17:53:59.665Z,30.80
2023-03-12T17:56:28.540Z,30.90
2023-03-12T17:58:59.046Z,31.00
2023-03-12T18:01:27.969Z,31.10
2023-03-12T18:03:57.055Z,31.10
2023-03-12T18:06:26.545Z,31.00
2023-03-12T18:08:55.643Z,30.90
2023-03-12T18:11:24.480Z,30.90
2023-03-12T18:13:53.632Z,30.90
2023-03-12T18:16:24.105Z,30.60
2023-03-12T18:18:53.258Z,30.80
2023-03-12T18:21:22.096Z,30.80
2023-03-12T18:23:51.213Z,30.80
2023-03-12T18:26:20.106Z,30.90
2023-03-12T18:28:50.487Z,31.00
2023-03-12T18:31:19.357Z,31.10
2023-03-12T18:33:49.884Z,30.90
2023-03-12T18:36:18.698Z,30.80
2023-03-12T18:38:48.032Z,30.90
2023-03-12T18:41:17.054Z,30.70
2023-03-12T18:43:46.168Z,30.90
2023-03-12T18:46:15.124Z,30.90
2023-03-12T18:48:44.613Z,30.80
2023-03-12T18:51:14.818Z,30.80
2023-03-12T18:53:46.061Z,30.90
2023-03-12T18:56:15.737Z,31.10
2023-03-12T18:58:44.824Z,30.80
2023-03-12T19:01:14.033Z,30.80
2023-03-12T19:03:43.170Z,30.80
2023-03-12T19:06:16.661Z,31.00
2023-03-12T19:08:45.802Z,30.90
2023-03-12T19:11:16.885Z,31.10
2023-03-12T19:13:49.508Z,31.20
2023-03-12T19:16:21.945Z,30.80
2023-03-12T19:18:52.079Z,31.00
2023-03-12T19:21:22.688Z,31.30
2023-03-12T19:23:52.483Z,31.20
2023-03-12T19:26:21.412Z,30.90
2023-03-12T19:28:50.492Z,31.10
2023-03-12T19:31:19.428Z,31.10
2023-03-12T19:33:48.608Z,31.00
2023-03-12T19:36:17.497Z,31.80
2023-03-12T19:38:48.125Z,31.30
2023-03-12T19:41:17.467Z,31.20
2023-03-12T19:43:47.133Z,31.30
2023-03-12T19:46:16.026Z,31.20
2023-03-12T19:48:45.118Z,31.50
2023-03-12T19:51:14.053Z,31.00
2023-03-12T19:53:43.734Z,31.10
2023-03-12T19:56:14.086Z,31.10
2023-03-12T19:58:43.263Z,31.30
2023-03-12T20:01:12.102Z,31.30
2023-03-12T20:03:43.870Z,31.00
2023-03-12T20:06:14.069Z,30.90
2023-03-12T20:08:44.581Z,31.00
2023-03-12T20:11:14.937Z,31.00
2023-03-12T20:13:44.133Z,30.80
2023-03-12T20:16:13.943Z,31.00
2023-03-12T20:18:43.059Z,31.10
2023-03-12T20:21:12.296Z,30.80
2023-03-12T20:23:41.481Z,30.90
2023-03-12T20:26:10.516Z,30.80
2023-03-12T20:28:40.984Z,30.90
2023-03-12T20:31:11.312Z,30.80
2023-03-12T20:33:40.740Z,30.80
2023-03-12T20:36:12.725Z,31.00
2023-03-12T20:38:42.392Z,31.10
2023-03-12T20:41:14.586Z,31.20
2023-03-12T20:43:46.332Z,31.30
2023-03-12T20:46:15.220Z,31.40
2023-03-12T20:48:44.338Z,31.50
2023-03-12T20:51:13.140Z,32.40
2023-03-12T20:53:42.695Z,31.80
2023-03-12T20:56:12.397Z,31.80
2023-03-12T20:58:41.525Z,32.00
2023-03-12T21:01:12.187Z,31.90
2023-03-12T21:03:41.291Z,31.70
2023-03-12T21:06:10.099Z,31.70
2023-03-12T21:08:39.184Z,31.90
2023-03-12T21:11:09.232Z,32.20
2023-03-12T21:13:38.317Z,32.00
2023-03-12T21:16:08.712Z,32.00
2023-03-12T21:18:39.303Z,31.90
2023-03-12T21:21:09.958Z,32.00
2023-03-12T21:23:39.608Z,31.90
2023-03-12T21:26:09.791Z,32.00
2023-03-12T21:28:39.004Z,32.70
2023-03-12T21:31:10.674Z,32.00
2023-03-12T21:33:41.367Z,32.10
2023-03-12T21:36:13.767Z,32.30
2023-03-12T21:38:43.873Z,32.40
2023-03-12T21:41:15.526Z,32.40
2023-03-12T21:43:46.743Z,32.40
2023-03-12T21:46:18.870Z,32.40
2023-03-12T21:48:49.930Z,32.40
2023-03-12T21:51:19.705Z,32.60
2023-03-12T21:53:48.795Z,32.80
2023-03-12T21:56:17.948Z,32.80
2023-03-12T21:58:47.013Z,32.80
2023-03-12T22:01:19.103Z,32.70
2023-03-12T22:03:49.672Z,32.80
2023-03-12T22:06:18.820Z,32.60
2023-03-12T22:08:49.238Z,32.60
2023-03-12T22:11:18.378Z,32.50
2023-03-12T22:13:47.533Z,32.40
2023-03-12T22:16:17.238Z,32.50
2023-03-12T22:18:47.697Z,32.80
2023-03-12T22:21:20.902Z,32.80
2023-03-12T22:23:52.472Z,32.80
2023-03-12T22:26:22.605Z,32.70
2023-03-12T22:28:53.569Z,32.60
2023-03-12T22:31:24.721Z,33.00
2023-03-12T22:33:54.334Z,32.80
2023-03-12T22:36:25.020Z,32.80
2023-03-12T22:38:54.586Z,32.70
2023-03-12T22:41:25.734Z,32.80
2023-03-12T22:43:57.717Z,32.90
2023-03-12T22:46:27.765Z,32.90
2023-03-12T22:48:59.597Z,32.80
2023-03-12T22:51:32.505Z,32.90
2023-03-12T22:54:01.780Z,32.90
2023-03-12T22:56:31.078Z,33.20
2023-03-12T22:59:00.227Z,33.10
2023-03-12T23:01:29.060Z,33.10
2023-03-12T23:03:59.776Z,33.10
2023-03-12T23:06:30.548Z,33.10
2023-03-12T23:09:00.642Z,33.10
2023-03-12T23:11:30.994Z,33.10
2023-03-12T23:14:00.158Z,32.90
2023-03-12T23:16:29.091Z,33.00
2023-03-12T23:18:58.139Z,33.20
2023-03-12T23:21:27.232Z,33.20
2023-03-12T23:23:57.634Z,33.00
2023-03-12T23:26:28.923Z,32.90
2023-03-12T23:28:59.931Z,33.20
2023-03-12T23:31:30.655Z,32.90
2023-03-12T23:33:59.769Z,32.90
2023-03-12T23:36:28.844Z,32.90
2023-03-12T23:38:59.350Z,32.90
2023-03-12T23:41:30.403Z,32.90
2023-03-12T23:44:00.444Z,33.00
2023-03-12T23:46:29.606Z,32.90
2023-03-12T23:48:59.380Z,32.80
2023-03-12T23:51:31.201Z,32.80
2023-03-12T23:54:05.293Z,32.50
2023-03-12T23:56:37.758Z,32.80
2023-03-12T23:59:10.030Z,32.60
